Time;durP1;ratioP1;P1;durP2;ratioP2;P2;SDS_P1;SDS_P2;PMS_P1;PMS_P2;Temp;Humidity;BMP_temperature;BMP_pressure;BME280_temperature;BME280_humidity;BME280_pressure;Samples;Min_cycle;Max_cycle;Signal;HPM_P1;HPM_P2
2022/07/31 00:00:58;;;;;;;6.00;4.60;;;;;;;18.95;69.87;101617.19;4990541;28;20692;-91
2022/07/31 00:03:24;;;;;;;7.07;4.30;;;;;;;18.95;70.78;101619.13;4990185;28;20036;-91
2022/07/31 00:05:50;;;;;;;7.80;4.63;;;;;;;18.91;70.24;101614.25;4990002;28;20034;-91
2022/07/31 00:08:15;;;;;;;5.47;4.40;;;;;;;18.91;71.13;101610.72;4989810;28;20030;-91
2022/07/31 00:10:40;;;;;;;6.73;4.17;;;;;;;18.97;71.54;101609.56;4990175;28;20023;-91
2022/07/31 00:13:06;;;;;;;6.27;4.33;;;;;;;19.00;70.75;101610.88;4988503;28;20105;-91
2022/07/31 00:15:31;;;;;;;6.07;4.57;;;;;;;19.01;72.27;101609.78;4988187;28;20030;-91
2022/07/31 00:17:56;;;;;;;7.60;4.80;;;;;;;18.97;72.29;101609.56;4990290;28;20030;-91
2022/07/31 00:20:22;;;;;;;6.18;4.82;;;;;;;19.05;71.52;101611.63;4990586;28;20031;-91
2022/07/31 00:22:47;;;;;;;7.83;4.90;;;;;;;19.06;71.57;101604.28;4989864;28;20113;-91
2022/07/31 00:25:14;;;;;;;10.67;4.87;;;;;;;19.11;70.59;101600.66;4991777;28;20034;-91
2022/07/31 00:27:40;;;;;;;7.35;4.35;;;;;;;19.12;71.00;101594.94;4994430;28;20513;-91
2022/07/31 00:30:07;;;;;;;5.50;4.50;;;;;;;19.14;71.17;101598.19;4994764;28;20109;-92
2022/07/31 00:32:32;;;;;;;9.25;4.80;;;;;;;19.10;71.27;101594.44;4994659;28;20058;-91
2022/07/31 00:34:57;;;;;;;7.60;4.23;;;;;;;19.11;72.00;101597.94;4998661;28;20033;-91
2022/07/31 00:37:23;;;;;;;6.95;4.10;;;;;;;19.14;71.40;101591.91;5012201;28;20053;-91
2022/07/31 00:39:48;;;;;;;4.63;4.20;;;;;;;19.14;71.49;101595.47;5013387;28;20065;-91
2022/07/31 00:42:24;;;;;;;5.27;4.30;;;;;;;19.16;70.71;101600.59;5011828;28;20061;-90
2022/07/31 00:44:50;;;;;;;6.28;5.55;;;;;;;19.07;72.12;101608.59;5011066;28;20042;-91
2022/07/31 00:47:16;;;;;;;12.68;5.45;;;;;;;19.10;72.04;101605.28;5012985;28;20030;-91
2022/07/31 00:49:41;;;;;;;13.05;6.10;;;;;;;19.06;71.68;101598.84;5013861;28;20052;-91
2022/07/31 00:52:06;;;;;;;10.80;6.50;;;;;;;19.03;71.27;101600.25;5013781;28;20473;-91
2022/07/31 00:54:32;;;;;;;11.27;6.77;;;;;;;19.05;70.83;101592.63;5011463;28;20033;-91
2022/07/31 00:56:59;;;;;;;9.63;6.55;;;;;;;19.02;71.35;101595.09;5013333;28;20025;-92
2022/07/31 00:59:26;;;;;;;8.20;6.43;;;;;;;18.98;71.24;101588.66;5013471;28;20025;-92
2022/07/31 01:01:51;;;;;;;10.45;7.05;;;;;;;18.93;71.87;101589.50;5014938;28;20049;-91
2022/07/31 01:04:17;;;;;;;11.33;6.70;;;;;;;18.89;71.63;101589.31;5012213;28;20033;-91
2022/07/31 01:06:44;;;;;;;8.48;6.93;;;;;;;18.82;72.08;101597.00;4995532;28;20018;-91
2022/07/31 01:09:09;;;;;;;9.50;7.40;;;;;;;18.72;71.91;101583.59;5012078;28;20100;-92
2022/07/31 01:11:49;;;;;;;13.40;7.17;;;;;;;18.72;71.18;101587.09;4995247;28;20033;-91
2022/07/31 01:14:16;;;;;;;10.40;6.40;;;;;;;18.67;71.88;101584.50;5011931;28;20041;-91
2022/07/31 01:16:46;;;;;;;7.13;6.43;;;;;;;18.66;72.10;101587.47;5017614;28;20081;-91
2022/07/31 01:19:27;;;;;;;12.57;6.43;;;;;;;18.64;71.79;101592.38;5016736;28;20026;-91
2022/07/31 01:22:23;;;;;;;10.05;6.80;;;;;;;18.57;71.51;101593.59;5018522;28;20034;-91
2022/07/31 01:25:07;;;;;;;10.98;6.93;;;;;;;18.47;72.74;101593.72;5014882;28;20045;-91
2022/07/31 01:27:51;;;;;;;12.50;7.35;;;;;;;18.49;71.71;101591.53;5013726;28;20026;-92
2022/07/31 01:30:18;;;;;;;10.80;6.83;;;;;;;18.45;73.25;101593.19;5012664;28;20073;-91
2022/07/31 01:32:48;;;;;;;10.40;6.20;;;;;;;18.42;72.68;101591.09;5012096;28;20358;-91
2022/07/31 01:35:24;;;;;;;8.45;6.43;;;;;;;18.38;72.08;101580.00;5011987;28;20072;-92
2022/07/31 01:38:05;;;;;;;9.65;6.45;;;;;;;18.32;72.52;101589.31;5012136;28;20030;-91
2022/07/31 01:40:36;;;;;;;10.35;6.93;;;;;;;18.27;72.97;101579.31;5010943;28;20116;-91
2022/07/31 01:43:07;;;;;;;9.82;6.70;;;;;;;18.24;73.59;101585.34;5012108;28;20033;-91
2022/07/31 01:45:37;;;;;;;10.73;6.55;;;;;;;18.20;73.96;101581.59;5011674;28;20592;-91
2022/07/31 01:48:04;;;;;;;9.75;6.38;;;;;;;18.21;73.47;101583.22;5010615;28;20030;-91
2022/07/31 01:50:32;;;;;;;8.35;6.68;;;;;;;18.20;73.92;101578.91;5012982;28;20052;-91
2022/07/31 01:52:59;;;;;;;9.93;6.82;;;;;;;18.16;75.30;101575.16;5011671;28;20389;-91
2022/07/31 01:55:26;;;;;;;10.90;6.83;;;;;;;18.08;75.85;101575.78;5011249;28;20088;-91
2022/07/31 01:57:54;;;;;;;7.90;6.60;;;;;;;18.00;76.63;101575.34;5012494;28;20756;-92
2022/07/31 02:00:20;;;;;;;11.38;6.50;;;;;;;17.95;76.11;101577.28;5010937;28;20029;-92
2022/07/31 02:02:48;;;;;;;14.07;6.70;;;;;;;17.88;77.01;101572.22;5011997;28;20033;-91
2022/07/31 02:05:15;;;;;;;10.50;6.78;;;;;;;17.82;77.44;101570.66;5010894;28;20034;-91
2022/07/31 02:07:44;;;;;;;15.00;6.80;;;;;;;17.74;77.25;101571.28;5012080;28;20034;-91
2022/07/31 02:10:11;;;;;;;7.13;5.80;;;;;;;17.75;77.05;101575.59;5010810;28;20384;-91
2022/07/31 02:12:36;;;;;;;8.73;6.53;;;;;;;17.70;77.98;101566.44;4993826;28;20037;-92
2022/07/31 02:15:08;;;;;;;11.32;6.88;;;;;;;17.71;77.24;101578.88;5009195;28;20026;-91
2022/07/31 02:17:35;;;;;;;9.48;6.10;;;;;;;17.67;77.33;101575.16;5012529;28;20025;-92
2022/07/31 02:20:03;;;;;;;11.38;6.18;;;;;;;17.63;77.63;101570.56;5012149;28;20041;-92
2022/07/31 02:22:28;;;;;;;13.18;6.45;;;;;;;17.60;78.33;101577.38;5012012;28;20075;-92
2022/07/31 02:24:54;;;;;;;9.27;6.93;;;;;;;17.56;78.27;101574.44;4992099;28;20034;-92
2022/07/31 02:27:20;;;;;;;10.13;6.50;;;;;;;17.55;78.49;101566.59;5010963;28;20034;-92
2022/07/31 02:29:47;;;;;;;13.40;6.93;;;;;;;17.57;78.75;101577.97;5011612;28;20076;-92
2022/07/31 02:32:13;;;;;;;11.13;6.63;;;;;;;17.55;78.19;101574.72;5011460;28;20030;-91
2022/07/31 02:34:40;;;;;;;8.98;6.40;;;;;;;17.49;78.53;101578.59;4992042;28;20041;-92
2022/07/31 02:37:06;;;;;;;11.70;6.60;;;;;;;17.46;78.48;101563.69;5010607;28;20102;-92
2022/07/31 02:39:34;;;;;;;8.55;6.43;;;;;;;17.42;78.32;101573.53;5011819;28;20397;-92
2022/07/31 02:42:00;;;;;;;10.27;6.20;;;;;;;17.36;78.91;101571.94;5008573;28;20041;-92
2022/07/31 02:44:28;;;;;;;8.63;5.57;;;;;;;17.35;79.01;101576.53;5009249;28;20038;-91
2022/07/31 02:46:54;;;;;;;11.17;6.50;;;;;;;17.35;78.83;101570.31;5010817;28;20025;-92
2022/07/31 02:49:20;;;;;;;8.32;5.90;;;;;;;17.33;79.50;101576.03;5009604;28;20049;-91
2022/07/31 02:51:48;;;;;;;8.50;6.50;;;;;;;17.29;79.27;101571.47;5011616;28;20080;-90
2022/07/31 02:54:14;;;;;;;11.70;6.80;;;;;;;17.26;79.42;101567.44;5011050;28;20081;-90
2022/07/31 02:56:40;;;;;;;13.63;6.50;;;;;;;17.23;79.59;101557.97;5009972;28;20474;-91
2022/07/31 02:59:05;;;;;;;9.35;6.43;;;;;;;17.24;79.34;101562.31;5011498;28;20030;-89
2022/07/31 03:01:35;;;;;;;12.57;6.60;;;;;;;17.25;79.13;101565.81;5009468;28;20084;-92
2022/07/31 03:04:00;;;;;;;11.10;6.55;;;;;;;17.26;79.11;101557.38;4987342;28;20025;-91
2022/07/31 03:06:26;;;;;;;9.53;6.47;;;;;;;17.25;78.85;101552.28;5010294;28;20049;-90
2022/07/31 03:08:51;;;;;;;10.40;6.77;;;;;;;17.29;79.30;101558.75;5009043;28;20065;-89
2022/07/31 03:11:16;;;;;;;9.27;6.80;;;;;;;17.34;78.84;101556.00;5014613;28;20035;-89
2022/07/31 03:13:42;;;;;;;11.77;6.40;;;;;;;17.32;79.78;101560.88;5009286;28;20379;-89
2022/07/31 03:16:10;;;;;;;12.18;6.18;;;;;;;17.37;78.98;101557.31;5009382;28;20076;-89
2022/07/31 03:18:37;;;;;;;12.30;6.60;;;;;;;17.38;78.58;101546.19;5005556;28;20018;-89
2022/07/31 03:21:03;;;;;;;9.10;6.10;;;;;;;17.44;78.98;101544.22;5010744;28;20356;-89
2022/07/31 03:23:35;;;;;;;14.93;7.22;;;;;;;17.46;78.75;101535.81;5009288;28;20041;-88
2022/07/31 03:26:01;;;;;;;14.68;6.72;;;;;;;17.52;78.39;101545.53;5010082;28;20022;-88
2022/07/31 03:28:27;;;;;;;11.43;6.60;;;;;;;17.52;78.84;101548.22;5010858;28;20036;-89
2022/07/31 03:30:54;;;;;;;13.20;7.00;;;;;;;17.51;79.06;101550.09;5010037;28;20022;-89
2022/07/31 03:33:19;;;;;;;10.60;7.18;;;;;;;17.49;79.03;101546.09;5009577;28;20500;-89
2022/07/31 03:35:45;;;;;;;12.70;6.77;;;;;;;17.49;78.80;101548.78;5006983;28;20027;-89
2022/07/31 03:38:10;;;;;;;13.82;7.13;;;;;;;17.46;79.56;101554.78;5010726;28;20045;-88
2022/07/31 03:40:35;;;;;;;11.03;6.60;;;;;;;17.41;78.75;101547.53;5008409;28;20048;-89
2022/07/31 03:43:02;;;;;;;12.13;7.10;;;;;;;17.41;79.10;101548.31;5009735;28;20026;-88
2022/07/31 03:45:29;;;;;;;9.35;7.05;;;;;;;17.40;79.22;101551.31;5006631;28;20695;-89
2022/07/31 03:47:55;;;;;;;13.05;8.02;;;;;;;17.35;79.68;101544.03;5006868;28;20378;-88
2022/07/31 03:50:22;;;;;;;12.63;6.95;;;;;;;17.37;79.42;101544.56;5023519;28;20040;-88
2022/07/31 03:52:49;;;;;;;11.13;7.07;;;;;;;17.37;79.66;101541.84;5019604;28;20029;-88
2022/07/31 03:55:15;;;;;;;14.07;7.67;;;;;;;17.37;79.41;101549.19;5022564;28;20296;-88
2022/07/31 03:57:41;;;;;;;12.95;7.80;;;;;;;17.37;80.21;101541.84;5007398;28;20037;-88
2022/07/31 04:00:08;;;;;;;15.25;8.60;;;;;;;17.41;79.26;101542.09;4991323;28;20393;-88
2022/07/31 04:02:33;;;;;;;13.95;8.27;;;;;;;17.43;79.34;101545.34;5010199;28;20026;-87
2022/07/31 04:04:58;;;;;;;11.80;9.00;;;;;;;17.47;79.75;101542.84;5008999;28;20572;-88
2022/07/31 04:07:24;;;;;;;13.03;9.30;;;;;;;17.50;79.24;101539.56;4990239;28;20028;-89
2022/07/31 04:09:50;;;;;;;14.07;9.15;;;;;;;17.50;79.16;101539.56;5009459;28;20025;-89
2022/07/31 04:12:15;;;;;;;14.87;9.10;;;;;;;17.51;79.67;101544.69;5010325;28;20399;-90
2022/07/31 04:14:40;;;;;;;13.00;9.17;;;;;;;17.54;79.22;101548.72;4998373;28;20410;-88
2022/07/31 04:17:06;;;;;;;13.57;10.17;;;;;;;17.54;78.73;101560.38;5003516;28;20045;-89
2022/07/31 04:19:31;;;;;;;17.50;9.57;;;;;;;17.55;79.16;101551.16;4992556;28;20058;-87
2022/07/31 04:22:00;;;;;;;11.97;9.70;;;;;;;17.55;79.01;101561.16;5009265;28;20418;-89
2022/07/31 04:24:25;;;;;;;17.27;9.00;;;;;;;17.54;79.96;101554.97;5004941;28;20152;-88
2022/07/31 04:26:54;;;;;;;12.93;9.77;;;;;;;17.51;81.19;101566.38;5005341;28;20112;-88
2022/07/31 04:29:19;;;;;;;16.65;10.35;;;;;;;17.48;81.58;101564.22;5009188;28;20028;-88
2022/07/31 04:31:45;;;;;;;16.30;9.30;;;;;;;17.49;81.53;101555.00;5008784;28;20359;-88
2022/07/31 04:34:10;;;;;;;20.03;9.00;;;;;;;17.47;81.62;101548.28;5000023;28;20084;-88
2022/07/31 04:36:36;;;;;;;12.53;9.23;;;;;;;17.50;81.23;101558.53;4987460;28;20041;-88
2022/07/31 04:39:02;;;;;;;14.48;8.93;;;;;;;17.55;81.34;101563.88;4990343;28;20023;-88
2022/07/31 04:41:28;;;;;;;11.18;8.52;;;;;;;17.56;81.66;101562.78;4989189;28;20188;-88
2022/07/31 04:43:53;;;;;;;13.40;7.90;;;;;;;17.65;80.52;101562.97;4988786;28;20075;-87
2022/07/31 04:46:19;;;;;;;12.73;7.33;;;;;;;17.73;80.49;101567.78;4989438;28;20378;-88
2022/07/31 04:48:44;;;;;;;9.63;7.30;;;;;;;17.78;80.15;101561.47;4969866;28;20150;-88
2022/07/31 04:51:16;;;;;;;13.03;7.43;;;;;;;17.82;80.29;101557.09;4989417;28;20018;-89
2022/07/31 04:53:42;;;;;;;10.85;7.82;;;;;;;17.86;80.47;101552.72;4989659;28;20022;-88
2022/07/31 04:58:51;;;;;;;14.20;7.40;;;;;;;18.05;80.18;101565.53;4989009;28;20081;-89
2022/07/31 05:01:16;;;;;;;9.80;6.97;;;;;;;18.08;80.25;101554.09;4989795;28;20293;-88
2022/07/31 05:03:42;;;;;;;8.10;6.33;;;;;;;18.13;79.69;101562.16;4985359;28;20026;-88
2022/07/31 05:06:11;;;;;;;10.33;6.63;;;;;;;18.16;79.94;101556.97;4988262;28;20800;-90
2022/07/31 05:08:37;;;;;;;10.23;7.00;;;;;;;18.11;80.49;101558.94;4989275;28;20026;-89
2022/07/31 05:11:21;;;;;;;13.15;7.13;;;;;;;18.09;81.14;101556.53;4993724;28;20034;-89
2022/07/31 05:13:51;;;;;;;10.90;6.43;;;;;;;18.07;81.43;101557.91;4993300;28;20080;-90
2022/07/31 05:16:17;;;;;;;9.45;6.88;;;;;;;18.05;81.53;101550.06;4993626;28;20022;-90
2022/07/31 05:18:46;;;;;;;9.60;6.47;;;;;;;18.04;81.39;101548.44;4992521;28;20113;-90
2022/07/31 05:21:13;;;;;;;11.35;7.30;;;;;;;18.08;81.23;101548.66;4993704;28;20046;-91
2022/07/31 05:23:39;;;;;;;11.18;6.32;;;;;;;18.07;81.50;101547.88;4992211;28;20026;-90
2022/07/31 05:26:05;;;;;;;8.30;5.80;;;;;;;18.06;82.14;101545.47;4991186;28;20046;-90
2022/07/31 05:28:30;;;;;;;11.43;5.73;;;;;;;18.14;80.82;101547.50;4992067;28;20057;-90
2022/07/31 05:30:56;;;;;;;10.90;5.73;;;;;;;18.21;81.87;101556.09;4993604;28;20035;-89
2022/07/31 05:33:21;;;;;;;10.00;6.05;;;;;;;18.24;82.25;101546.56;4992326;28;20047;-89
2022/07/31 05:35:47;;;;;;;7.03;5.30;;;;;;;18.28;81.69;101547.59;4992203;28;20038;-90
2022/07/31 05:38:12;;;;;;;7.82;5.22;;;;;;;18.25;82.55;101543.56;4992515;28;20034;-91
2022/07/31 05:40:37;;;;;;;8.57;5.30;;;;;;;18.11;84.35;101539.94;4981800;28;20039;-90
2022/07/31 05:43:03;;;;;;;8.47;5.57;;;;;;;18.10;85.71;101535.63;4994194;28;20018;-89
2022/07/31 05:45:28;;;;;;;7.50;5.77;;;;;;;18.05;87.49;101535.72;4993247;28;20026;-89
2022/07/31 05:47:53;;;;;;;8.77;5.20;;;;;;;17.93;87.31;101536.88;4991380;28;20030;-90
2022/07/31 05:50:20;;;;;;;8.70;4.80;;;;;;;17.92;88.11;101540.69;4993064;28;20072;-90
2022/07/31 05:52:45;;;;;;;6.82;4.68;;;;;;;17.97;87.72;101543.34;4992697;28;20581;-90
2022/07/31 05:55:11;;;;;;;8.60;5.27;;;;;;;18.04;87.06;101543.03;4992831;28;20030;-90
2022/07/31 05:57:36;;;;;;;8.85;5.57;;;;;;;18.06;88.15;101546.25;4990569;28;20053;-89
2022/07/31 06:00:02;;;;;;;7.57;5.57;;;;;;;18.13;87.94;101548.59;4992204;28;20030;-90
2022/07/31 06:02:28;;;;;;;8.13;4.82;;;;;;;18.17;88.68;101549.63;4991721;28;20142;-90
2022/07/31 06:04:53;;;;;;;7.20;4.97;;;;;;;18.28;87.27;101547.59;4990150;28;20611;-88
2022/07/31 06:07:18;;;;;;;7.57;4.80;;;;;;;18.30;87.58;101546.19;4991280;28;20501;-90
2022/07/31 06:09:43;;;;;;;7.87;4.67;;;;;;;18.35;87.43;101544.50;4991911;28;20038;-92
2022/07/31 06:12:09;;;;;;;8.27;4.40;;;;;;;18.35;86.77;101547.22;4993024;28;20039;-92
2022/07/31 06:14:34;;;;;;;7.30;4.30;;;;;;;18.37;87.33;101551.25;4991180;28;20035;-91
2022/07/31 06:17:04;;;;;;;10.00;4.43;;;;;;;18.43;86.58;101549.28;4992342;28;20035;-91
2022/07/31 06:19:31;;;;;;;5.50;4.20;;;;;;;18.49;86.31;101553.53;4992105;28;20062;-94
2022/07/31 06:21:56;;;;;;;8.38;4.95;;;;;;;18.57;86.33;101550.16;4991405;28;20078;-92
2022/07/31 06:24:24;;;;;;;6.23;4.30;;;;;;;18.66;85.59;101554.91;4997804;28;20038;-91
2022/07/31 06:27:05;;;;;;;5.93;4.28;;;;;;;18.62;84.92;101530.28;5001541;23;20042;-90
2022/07/31 06:29:45;;;;;;;5.05;4.22;;;;;;;18.76;84.51;101535.75;4973785;28;20035;-91
2022/07/31 06:35:54;;;;;;;7.28;4.25;;;;;;;19.01;82.98;101517.44;4894155;29;20080;-91
2022/07/31 06:45:15;;;;;;;7.47;3.92;;;;;;;19.52;81.64;101534.72;4986693;28;20080;-91
2022/07/31 06:47:40;;;;;;;5.35;3.95;;;;;;;19.56;80.35;101524.03;4979388;28;20038;-90
2022/07/31 06:50:11;;;;;;;5.03;4.10;;;;;;;19.67;79.89;101522.75;4975170;28;20073;-90
2022/07/31 06:52:59;;;;;;;6.80;3.95;;;;;;;19.94;79.47;101541.00;4992180;28;20022;-90
2022/07/31 06:56:10;;;;;;;6.57;3.90;;;;;;;19.97;79.11;101531.41;4973739;28;20136;-91
2022/07/31 06:58:38;;;;;;;5.67;4.30;;;;;;;20.05;77.95;101536.13;4960507;28;20392;-91
2022/07/31 07:01:54;;;;;;;7.93;4.30;;;;;;;20.10;78.12;101527.06;4987184;28;20043;-91
2022/07/31 07:04:22;;;;;;;6.35;4.10;;;;;;;20.20;77.81;101518.66;4907595;29;20040;-89
2022/07/31 07:06:48;;;;;;;8.40;4.30;;;;;;;20.43;77.15;101518.69;4893225;29;20846;-90
2022/07/31 07:09:16;;;;;;;7.27;4.33;;;;;;;20.62;76.57;101534.88;4971988;28;20026;-91
2022/07/31 07:11:41;;;;;;;6.45;3.90;;;;;;;20.73;75.47;101522.59;4991182;28;20479;-90
2022/07/31 07:14:57;;;;;;;;;;;;;;;;;;;;;
2022/07/31 07:34:08;;;;;;;10.38;6.38;;;;;;;22.31;71.02;101537.94;4971638;28;20061;-92
2022/07/31 07:36:34;;;;;;;10.30;6.68;;;;;;;22.63;68.90;101530.44;4962995;28;20424;-91
2022/07/31 07:39:02;;;;;;;8.87;5.77;;;;;;;23.04;67.65;101531.75;4971828;28;20029;-91
2022/07/31 07:41:34;;;;;;;10.57;6.68;;;;;;;23.28;66.40;101544.09;4990304;28;20034;-92
2022/07/31 07:43:59;;;;;;;10.15;6.30;;;;;;;23.11;66.29;101521.16;4988863;28;20026;-89
2022/07/31 07:46:24;;;;;;;11.77;6.77;;;;;;;23.19;67.21;101537.84;4990529;28;20028;-88
2022/07/31 07:48:50;;;;;;;12.35;7.32;;;;;;;23.28;65.98;101546.84;4989889;28;20259;-88
2022/07/31 07:51:16;;;;;;;8.40;6.67;;;;;;;23.36;65.61;101548.75;4990238;28;20022;-88
2022/07/31 07:53:41;;;;;;;8.48;6.68;;;;;;;23.26;65.69;101543.63;4988982;28;20027;-88
2022/07/31 07:56:06;;;;;;;10.33;7.37;;;;;;;23.16;65.46;101536.56;4968887;28;20035;-88
2022/07/31 07:58:32;;;;;;;10.13;7.10;;;;;;;23.13;66.16;101531.75;4986919;28;20100;-89
2022/07/31 08:00:57;;;;;;;11.20;7.33;;;;;;;23.21;66.01;101539.16;4990863;28;20050;-89
2022/07/31 08:03:22;;;;;;;8.60;7.13;;;;;;;23.28;66.07;101541.38;4990157;28;20378;-89
2022/07/31 08:05:47;;;;;;;12.50;7.77;;;;;;;23.20;66.06;101539.44;4990577;28;20049;-89
2022/07/31 08:08:13;;;;;;;10.43;6.63;;;;;;;23.25;65.96;101537.38;4989660;28;20093;-90
2022/07/31 08:10:39;;;;;;;9.30;6.90;;;;;;;22.99;66.71;101535.47;4990234;28;20026;-88
2022/07/31 08:13:06;;;;;;;9.83;7.33;;;;;;;23.17;66.41;101531.91;4989306;28;20513;-88
2022/07/31 08:15:32;;;;;;;9.95;7.28;;;;;;;23.62;65.22;101520.47;4989437;28;20470;-89
2022/07/31 08:17:57;;;;;;;9.03;6.60;;;;;;;23.99;64.16;101523.47;4989431;28;20058;-89
2022/07/31 08:20:22;;;;;;;8.98;6.57;;;;;;;24.10;63.42;101521.16;4990465;28;20037;-88
2022/07/31 08:22:48;;;;;;;7.97;6.37;;;;;;;24.24;63.28;101523.63;4988534;28;20077;-88
2022/07/31 08:25:13;;;;;;;11.37;6.40;;;;;;;24.35;62.67;101526.75;4990123;28;20023;-88
2022/07/31 08:27:38;;;;;;;9.20;6.70;;;;;;;24.25;62.39;101525.22;4985884;28;20128;-89
2022/07/31 08:30:04;;;;;;;9.77;6.93;;;;;;;24.09;62.21;101516.81;4987753;28;20026;-88
2022/07/31 08:32:30;;;;;;;7.65;6.30;;;;;;;24.08;62.87;101517.16;4990340;28;20085;-90
2022/07/31 08:34:56;;;;;;;9.68;6.22;;;;;;;24.13;63.14;101522.41;4990127;28;20023;-90
2022/07/31 08:37:21;;;;;;;11.85;6.60;;;;;;;24.01;63.40;101518.47;4971813;28;20022;-90
2022/07/31 08:42:52;;;;;;;7.63;5.95;;;;;;;23.85;62.94;101504.53;4971596;28;20038;-90
2022/07/31 08:45:27;;;;;;;7.63;6.35;;;;;;;23.64;64.38;101526.41;4992504;28;20030;-89
2022/07/31 08:48:09;;;;;;;8.80;6.10;;;;;;;23.41;65.10;101526.69;4993266;28;20049;-89
2022/07/31 08:50:37;;;;;;;8.57;6.25;;;;;;;23.34;66.02;101525.59;4994109;28;20053;-87
2022/07/31 08:53:03;;;;;;;8.70;6.10;;;;;;;23.37;66.10;101512.03;4994512;28;20048;-88
2022/07/31 08:55:30;;;;;;;8.20;6.13;;;;;;;23.43;65.87;101521.69;4992530;28;20053;-89
2022/07/31 08:57:55;;;;;;;8.63;5.90;;;;;;;23.62;65.18;101528.66;4992062;28;20380;-89
2022/07/31 09:00:21;;;;;;;8.13;6.03;;;;;;;23.44;65.58;101539.69;4996579;28;20550;-90
2022/07/31 09:02:48;;;;;;;8.53;6.13;;;;;;;23.44;65.94;101536.16;4991889;28;20405;-87
2022/07/31 09:05:14;;;;;;;8.02;5.63;;;;;;;23.34;65.45;101529.13;4961521;28;20030;-88
2022/07/31 09:07:40;;;;;;;7.40;5.95;;;;;;;23.28;66.70;101536.69;4993563;28;20030;-87
2022/07/31 09:10:18;;;;;;;12.38;6.03;;;;;;;23.41;66.41;101531.34;4992265;28;20030;-87
2022/07/31 09:12:44;;;;;;;7.25;6.00;;;;;;;23.61;65.80;101518.06;4975772;28;20026;-88
2022/07/31 09:15:27;;;;;;;7.77;5.40;;;;;;;23.87;65.24;101513.22;4993280;28;20492;-86
2022/07/31 09:17:53;;;;;;;10.57;6.03;;;;;;;24.05;63.60;101507.66;4973907;28;20023;-89
2022/07/31 09:20:21;;;;;;;7.55;5.68;;;;;;;24.12;63.90;101510.66;4974302;28;20031;-89
2022/07/31 09:22:51;;;;;;;8.00;6.47;;;;;;;24.16;63.02;101519.81;4975108;28;20039;-84
2022/07/31 09:25:18;;;;;;;7.90;5.63;;;;;;;24.25;63.16;101511.53;4991608;28;20397;-86
2022/07/31 09:27:44;;;;;;;6.20;5.13;;;;;;;24.48;62.62;101509.22;4992844;28;20093;-86
2022/07/31 09:30:10;;;;;;;7.75;5.65;;;;;;;24.76;61.89;101513.34;4989147;28;20372;-86
2022/07/31 09:32:36;;;;;;;7.95;5.43;;;;;;;24.85;61.88;101519.50;4995233;28;20041;-86
2022/07/31 09:35:10;;;;;;;7.95;4.93;;;;;;;25.10;60.96;101514.09;4991366;28;20031;-86
2022/07/31 09:37:35;;;;;;;8.73;5.00;;;;;;;25.35;59.98;101514.09;4991511;28;20092;-86
2022/07/31 09:40:04;;;;;;;9.30;5.30;;;;;;;25.44;59.93;101520.28;4993291;28;20692;-86
2022/07/31 09:42:44;;;;;;;9.13;5.30;;;;;;;25.42;60.30;101519.03;4992441;28;20477;-86
2022/07/31 09:45:21;;;;;;;7.82;5.10;;;;;;;25.28;60.29;101508.38;4987087;28;20073;-85
2022/07/31 09:48:00;;;;;;;7.63;4.75;;;;;;;25.12;60.39;101513.72;4992587;28;20026;-85
2022/07/31 09:50:26;;;;;;;6.68;4.90;;;;;;;25.58;58.90;101519.13;4993298;28;20038;-85
2022/07/31 09:52:58;;;;;;;7.70;4.60;;;;;;;25.89;59.08;101515.78;4992356;28;20037;-86
2022/07/31 09:55:23;;;;;;;10.13;5.22;;;;;;;26.46;56.83;101513.09;4990968;28;20698;-85
2022/07/31 09:57:55;;;;;;;6.43;4.70;;;;;;;26.63;55.90;101512.00;4993097;28;20077;-85
2022/07/31 10:00:21;;;;;;;5.50;4.43;;;;;;;26.84;55.12;101502.75;4980171;28;20030;-85
2022/07/31 10:02:51;;;;;;;8.07;5.35;;;;;;;26.82;54.68;101511.34;4991801;28;20018;-85
2022/07/31 10:05:17;;;;;;;7.25;5.03;;;;;;;27.13;54.51;101512.50;4992777;28;20030;-85
2022/07/31 10:07:44;;;;;;;9.73;8.17;;;;;;;27.50;53.35;101511.44;4992347;28;20109;-85
2022/07/31 10:10:11;;;;;;;7.60;5.80;;;;;;;27.80;52.70;101508.16;4990786;28;20089;-85
2022/07/31 10:12:41;;;;;;;7.05;4.30;;;;;;;27.85;52.40;101507.06;4992045;28;20030;-85
2022/07/31 10:15:10;;;;;;;5.35;4.38;;;;;;;27.71;52.17;101507.56;4991991;28;20022;-87
2022/07/31 10:17:43;;;;;;;5.95;4.18;;;;;;;27.71;52.34;101524.09;4992670;28;20105;-88
2022/07/31 10:20:16;;;;;;;5.50;3.83;;;;;;;28.07;52.20;101514.63;4992432;28;20386;-88
2022/07/31 10:23:26;;;;;;;6.30;4.07;;;;;;;28.22;52.68;101487.38;4992886;28;20030;-87
2022/07/31 10:26:20;;;;;;;16.15;10.10;;;;;;;27.95;52.17;101479.75;4926408;28;20395;-87
2022/07/31 10:28:49;;;;;;;13.93;7.93;;;;;;;27.89;51.62;101500.50;4988448;28;20041;-86
2022/07/31 10:31:15;;;;;;;6.53;4.00;;;;;;;27.92;52.06;101497.03;5001281;28;20300;-86
2022/07/31 10:33:41;;;;;;;6.53;3.88;;;;;;;27.81;51.88;101498.75;4991661;28;20057;-88
2022/07/31 10:36:18;;;;;;;9.95;3.85;;;;;;;27.36;52.52;101503.59;4969298;28;20482;-87
2022/07/31 10:38:53;;;;;;;10.07;4.15;;;;;;;27.06;53.14;101496.63;4988511;28;20026;-85
2022/07/31 10:41:45;;;;;;;9.07;3.40;;;;;;;27.37;52.91;101491.44;4967694;28;20386;-86
2022/07/31 10:44:22;;;;;;;4.27;3.53;;;;;;;27.68;52.37;101497.28;4991120;28;20280;-86
2022/07/31 10:46:47;;;;;;;6.93;3.58;;;;;;;28.01;50.82;101488.56;4990871;28;20022;-86
2022/07/31 10:49:13;;;;;;;6.18;3.58;;;;;;;28.03;50.28;101485.41;4991423;28;20034;-86
2022/07/31 10:51:49;;;;;;;6.97;4.07;;;;;;;28.00;51.10;101486.94;4990424;28;20101;-85
2022/07/31 10:54:14;;;;;;;6.03;3.38;;;;;;;28.18;50.40;101492.06;4978328;28;20038;-86
2022/07/31 10:56:45;;;;;;;5.50;3.27;;;;;;;27.80;51.07;101484.19;4991056;28;20513;-87
2022/07/31 10:59:10;;;;;;;4.40;3.17;;;;;;;27.54;51.60;101482.06;4990508;28;20050;-86
2022/07/31 11:01:50;;;;;;;6.93;3.20;;;;;;;27.30;52.29;101483.03;4991460;28;20065;-87
2022/07/31 11:04:29;;;;;;;3.45;3.15;;;;;;;26.94;53.15;101474.72;4990898;28;20053;-87
2022/07/31 11:06:54;;;;;;;6.97;3.25;;;;;;;26.64;54.39;101474.31;4990851;28;20033;-86
2022/07/31 11:09:25;;;;;;;6.97;3.10;;;;;;;26.48;54.77;101466.06;4989729;28;20105;-87
2022/07/31 11:11:50;;;;;;;4.18;3.60;;;;;;;26.66;54.06;101464.56;4990919;28;20121;-87
2022/07/31 11:14:16;;;;;;;4.53;3.20;;;;;;;27.29;53.09;101471.22;4984718;28;20030;-87
2022/07/31 11:16:49;;;;;;;5.67;2.90;;;;;;;27.60;51.93;101458.56;4989599;28;20408;-87
2022/07/31 11:19:16;;;;;;;4.45;2.80;;;;;;;28.04;50.95;101464.97;4990810;28;20109;-87
2022/07/31 11:21:41;;;;;;;6.07;3.28;;;;;;;28.07;50.74;101456.00;4989483;28;20022;-86
2022/07/31 11:24:22;;;;;;;4.07;2.97;;;;;;;28.23;51.76;101455.94;4990898;28;20239;-86
2022/07/31 11:26:52;;;;;;;3.30;3.00;;;;;;;27.84;51.08;101462.22;4991111;28;20030;-87
2022/07/31 11:29:29;;;;;;;5.15;3.20;;;;;;;27.92;51.55;101455.72;4990294;28;20129;-87
2022/07/31 11:31:59;;;;;;;4.65;2.95;;;;;;;27.89;51.81;101461.13;4990926;28;20181;-87
2022/07/31 11:34:24;;;;;;;5.57;3.08;;;;;;;28.13;51.01;101451.81;4990900;28;20485;-87
2022/07/31 11:36:50;;;;;;;4.67;3.07;;;;;;;28.33;50.19;101460.03;4991217;28;20034;-86
2022/07/31 11:39:15;;;;;;;3.17;2.88;;;;;;;28.56;49.43;101441.56;4991708;28;20433;-87
2022/07/31 11:41:41;;;;;;;5.43;2.93;;;;;;;28.50;48.47;101443.03;4990424;28;20030;-86
2022/07/31 11:44:07;;;;;;;3.57;2.90;;;;;;;28.83;48.83;101438.09;4990851;28;20485;-87
2022/07/31 11:46:34;;;;;;;4.00;3.20;;;;;;;28.93;48.72;101437.50;4989069;28;20023;-87
2022/07/31 11:49:00;;;;;;;5.10;4.13;;;;;;;29.02;48.85;101431.72;4989909;28;20058;-87
2022/07/31 11:51:26;;;;;;;3.83;2.80;;;;;;;28.92;48.44;101438.66;4990216;28;20098;-87
2022/07/31 11:53:56;;;;;;;4.97;2.90;;;;;;;28.60;48.22;101446.38;4989846;28;20038;-86
2022/07/31 11:56:23;;;;;;;4.27;2.80;;;;;;;28.51;48.70;101439.13;4973887;28;20405;-87
2022/07/31 11:58:53;;;;;;;3.93;3.00;;;;;;;28.25;49.21;101437.06;4989742;28;20301;-87
2022/07/31 12:01:23;;;;;;;3.83;3.00;;;;;;;28.01;49.92;101438.16;4989814;28;20027;-86
2022/07/31 12:03:49;;;;;;;3.70;3.03;;;;;;;28.04;50.91;101449.25;4970884;28;20091;-86